createdAt,value
2023-05-14T00:01:54.811Z,11.40
2023-05-14T00:04:21.824Z,9.90
2023-05-14T00:06:48.704Z,99.90
2023-05-14T00:09:15.690Z,99.90
2023-05-14T00:11:42.621Z,99.90
2023-05-14T00:14:09.551Z,99.90
2023-05-14T00:16:36.623Z,99.90
2023-05-14T00:19:03.878Z,99.90
2023-05-14T00:21:31.940Z,99.90
2023-05-14T00:23:58.878Z,99.90
2023-05-14T00:26:25.960Z,99.90
2023-05-14T00:28:52.884Z,99.90
2023-05-14T00:31:19.821Z,99.90
2023-05-14T00:33:46.784Z,1.00
2023-05-14T00:36:13.693Z,99.90
2023-05-14T00:38:40.588Z,99.90
2023-05-14T00:41:07.622Z,99.90
2023-05-14T00:43:34.624Z,1.00
2023-05-14T00:46:01.606Z,1.00
2023-05-14T00:48:28.743Z,1.00
2023-05-14T00:50:55.889Z,1.00
2023-05-14T00:53:22.898Z,1.00
2023-05-14T00:55:50.739Z,1.00
2023-05-14T00:58:18.800Z,1.00
2023-05-14T01:00:46.068Z,1.00
2023-05-14T01:03:13.085Z,1.00
2023-05-14T01:06:01.617Z,1.00
2023-05-14T01:08:43.210Z,1.00
2023-05-14T01:11:17.536Z,1.00
2023-05-14T01:14:10.475Z,1.00
2023-05-14T01:16:39.733Z,1.00
2023-05-14T01:19:21.467Z,1.00
2023-05-14T01:21:48.381Z,1.00
2023-05-14T01:24:15.472Z,1.00
2023-05-14T01:26:42.415Z,1.00
2023-05-14T01:29:30.885Z,1.00
2023-05-14T01:32:00.793Z,1.00
2023-05-14T01:34:30.181Z,1.00
2023-05-14T01:36:58.261Z,1.00
2023-05-14T01:39:26.779Z,1.00
2023-05-14T01:41:55.165Z,1.00
2023-05-14T01:44:22.340Z,1.00
2023-05-14T01:46:49.232Z,1.00
2023-05-14T01:49:18.263Z,1.00
2023-05-14T01:51:45.101Z,1.00
2023-05-14T01:54:12.042Z,1.00
2023-05-14T01:56:39.031Z,1.00
2023-05-14T01:59:05.950Z,1.00
2023-05-14T02:01:34.117Z,1.00
2023-05-14T02:04:01.328Z,1.00
2023-05-14T02:06:28.462Z,1.00
2023-05-14T02:08:55.459Z,1.00
2023-05-14T02:11:22.425Z,1.00
2023-05-14T02:13:49.342Z,1.00
2023-05-14T02:16:16.301Z,1.00
2023-05-14T02:18:43.353Z,1.00
2023-05-14T02:21:10.361Z,1.00
2023-05-14T02:23:41.681Z,1.00
2023-05-14T02:26:10.929Z,1.00
2023-05-14T02:28:38.800Z,1.00
2023-05-14T02:31:05.850Z,1.00
2023-05-14T02:33:32.989Z,1.00
2023-05-14T02:36:00.043Z,1.00
2023-05-14T02:38:27.333Z,1.00
2023-05-14T02:40:54.211Z,1.00
2023-05-14T02:43:21.271Z,1.00
2023-05-14T02:45:48.191Z,1.00
2023-05-14T02:48:15.097Z,1.00
2023-05-14T02:50:42.006Z,1.00
2023-05-14T02:53:08.934Z,1.90
2023-05-14T02:55:36.411Z,2.40
2023-05-14T02:58:03.400Z,3.80
2023-05-14T03:00:30.432Z,6.40
2023-05-14T03:02:57.720Z,9.20
2023-05-14T03:05:25.142Z,6.20
2023-05-14T03:07:53.705Z,7.30
2023-05-14T03:10:21.049Z,9.90
2023-05-14T03:12:48.229Z,7.10
2023-05-14T03:15:15.223Z,6.30
2023-05-14T03:17:42.213Z,6.30
2023-05-14T03:20:09.545Z,6.90
2023-05-14T03:22:36.617Z,11.10
2023-05-14T03:25:03.598Z,8.60
2023-05-14T03:27:30.574Z,5.40
2023-05-14T03:29:57.438Z,1.00
2023-05-14T03:32:24.406Z,1.00
2023-05-14T03:34:51.409Z,1.00
2023-05-14T03:37:18.361Z,1.00
2023-05-14T03:39:45.226Z,1.00
2023-05-14T03:42:12.110Z,99.90
2023-05-14T03:44:39.004Z,99.90
2023-05-14T03:47:05.980Z,99.90
2023-05-14T03:49:32.922Z,99.90
2023-05-14T03:51:59.888Z,99.90
2023-05-14T03:54:26.955Z,99.90
2023-05-14T03:56:53.944Z,99.90
2023-05-14T03:59:20.847Z,99.90
2023-05-14T04:01:47.829Z,99.90
2023-05-14T04:04:14.890Z,99.90
2023-05-14T04:06:41.768Z,1.00
2023-05-14T04:09:08.715Z,99.90
2023-05-14T04:11:35.633Z,13.00
2023-05-14T04:14:02.781Z,94.80
2023-05-14T04:16:29.842Z,99.90
2023-05-14T04:18:56.866Z,46.40
2023-05-14T04:21:23.758Z,1.00
2023-05-14T04:23:51.725Z,1.00
2023-05-14T04:26:18.634Z,99.90
2023-05-14T04:28:45.824Z,99.90
2023-05-14T04:31:14.029Z,99.90
2023-05-14T04:33:40.960Z,1.00
2023-05-14T04:36:08.348Z,99.90
2023-05-14T04:38:35.296Z,99.90
2023-05-14T04:41:02.296Z,99.90
2023-05-14T04:43:29.211Z,99.90
2023-05-14T04:45:56.329Z,99.90
2023-05-14T04:48:23.241Z,99.90
2023-05-14T04:50:50.179Z,99.90
2023-05-14T04:53:17.078Z,1.00
2023-05-14T04:55:43.979Z,1.00
2023-05-14T04:58:10.861Z,1.00
2023-05-14T05:00:38.385Z,2.60
2023-05-14T05:03:05.332Z,1.00
2023-05-14T05:05:32.336Z,1.00
2023-05-14T05:07:59.236Z,1.00
2023-05-14T05:10:26.530Z,99.90
2023-05-14T05:12:53.667Z,99.90
2023-05-14T05:15:20.523Z,99.90
2023-05-14T05:17:47.554Z,99.90
2023-05-14T05:20:14.645Z,99.90
2023-05-14T05:22:41.668Z,99.90
2023-05-14T05:25:09.255Z,99.90
2023-05-14T05:27:36.275Z,99.90
2023-05-14T05:30:04.087Z,99.90
2023-05-14T05:32:31.375Z,99.90
2023-05-14T05:34:58.494Z,99.90
2023-05-14T05:37:25.407Z,99.90
2023-05-14T05:39:52.278Z,96.30
2023-05-14T05:42:19.146Z,86.00
2023-05-14T05:44:46.091Z,45.00
2023-05-14T05:47:13.008Z,48.70
2023-05-14T05:49:39.989Z,1.00
2023-05-14T05:52:07.211Z,99.90
2023-05-14T05:54:34.885Z,99.90
2023-05-14T05:57:01.924Z,99.90
2023-05-14T05:59:28.943Z,99.90
2023-05-14T06:01:55.974Z,99.90
2023-05-14T06:04:22.944Z,47.20
2023-05-14T06:06:49.858Z,96.00
2023-05-14T06:09:16.756Z,23.00
2023-05-14T06:11:43.696Z,33.70
2023-05-14T06:14:10.679Z,7.40
2023-05-14T06:16:37.819Z,1.00
2023-05-14T06:19:04.798Z,99.90
2023-05-14T06:21:31.857Z,99.90
2023-05-14T06:23:58.712Z,99.90
2023-05-14T06:26:26.476Z,99.90
2023-05-14T06:28:53.421Z,99.90
2023-05-14T06:31:20.510Z,99.90
2023-05-14T06:33:47.402Z,99.90
2023-05-14T06:36:14.429Z,99.90
2023-05-14T06:38:41.382Z,99.90
2023-05-14T06:41:08.293Z,99.90
2023-05-14T06:43:35.185Z,99.90
2023-05-14T06:46:02.178Z,99.90
2023-05-14T06:48:29.652Z,99.90
2023-05-14T06:50:56.718Z,99.90
2023-05-14T06:53:23.681Z,99.90
2023-05-14T06:55:50.947Z,99.90
2023-05-14T06:58:17.980Z,99.90
2023-05-14T07:00:44.936Z,99.90
2023-05-14T07:03:11.890Z,99.90
2023-05-14T07:05:40.689Z,99.90
2023-05-14T07:08:07.733Z,99.90
2023-05-14T07:10:34.703Z,99.90
2023-05-14T07:13:01.713Z,99.90
2023-05-14T07:15:28.633Z,99.90
2023-05-14T07:17:55.650Z,99.90
2023-05-14T07:20:24.101Z,98.90
2023-05-14T07:22:52.829Z,99.90
2023-05-14T07:25:19.723Z,95.10
2023-05-14T07:27:46.645Z,73.70
2023-05-14T07:30:13.840Z,24.30
2023-05-14T07:32:41.069Z,16.20
2023-05-14T07:35:09.167Z,1.00
2023-05-14T07:37:36.099Z,7.50
2023-05-14T07:40:03.239Z,13.10
2023-05-14T07:42:36.483Z,1.00
2023-05-14T07:45:04.779Z,1.00
2023-05-14T07:47:32.063Z,1.00
2023-05-14T07:49:59.722Z,1.00
2023-05-14T07:52:26.635Z,1.00
2023-05-14T07:54:53.582Z,1.00
2023-05-14T07:57:20.552Z,1.00
2023-05-14T07:59:48.520Z,1.00
2023-05-14T08:02:16.942Z,1.00
2023-05-14T08:04:44.524Z,1.00
2023-05-14T08:07:11.562Z,1.00
2023-05-14T08:09:38.530Z,1.00
2023-05-14T08:12:06.221Z,1.00
2023-05-14T08:14:33.288Z,1.00
2023-05-14T08:17:00.322Z,1.00
2023-05-14T08:19:27.932Z,1.00
2023-05-14T08:21:55.049Z,1.00
2023-05-14T08:24:21.992Z,1.00
2023-05-14T08:26:49.042Z,1.00
2023-05-14T08:29:16.742Z,1.00
2023-05-14T08:31:44.039Z,1.00
2023-05-14T08:34:11.068Z,1.00
2023-05-14T08:36:39.308Z,1.00
2023-05-14T08:39:07.952Z,1.00
2023-05-14T08:41:35.636Z,1.00
2023-05-14T08:44:02.556Z,1.00
2023-05-14T08:46:32.101Z,1.00
2023-05-14T08:49:25.980Z,1.00
2023-05-14T08:51:53.229Z,1.00
2023-05-14T08:54:22.650Z,1.00
2023-05-14T08:56:52.342Z,1.00
2023-05-14T08:59:19.953Z,1.00
2023-05-14T09:01:48.456Z,1.00
2023-05-14T09:04:22.275Z,1.00
2023-05-14T09:06:50.837Z,1.00
2023-05-14T09:09:18.204Z,1.00
2023-05-14T09:11:52.098Z,1.00
2023-05-14T09:14:20.078Z,1.00
2023-05-14T09:16:48.917Z,1.00
2023-05-14T09:19:19.125Z,1.00
2023-05-14T09:21:47.858Z,1.00
2023-05-14T09:24:26.956Z,1.00
2023-05-14T09:26:56.347Z,1.00
2023-05-14T09:29:29.972Z,1.00
2023-05-14T09:31:58.402Z,1.00
2023-05-14T09:34:32.520Z,1.00
2023-05-14T09:37:00.501Z,1.00
2023-05-14T09:39:28.428Z,1.00
2023-05-14T09:41:56.380Z,1.00
2023-05-14T09:44:24.047Z,1.00
2023-05-14T09:46:51.817Z,1.00
2023-05-14T09:49:19.282Z,1.00
2023-05-14T09:51:46.521Z,1.00
2023-05-14T09:57:54.225Z,1.00
2023-05-14T10:00:23.353Z,1.00
2023-05-14T10:02:53.370Z,1.00
2023-05-14T10:05:21.521Z,1.00
2023-05-14T10:07:49.606Z,1.00
2023-05-14T10:10:19.238Z,1.00
2023-05-14T10:13:04.679Z,1.00
2023-05-14T10:15:40.743Z,1.00
2023-05-14T10:18:11.527Z,1.00
2023-05-14T10:24:26.838Z,1.00
2023-05-14T10:26:54.126Z,99.90
2023-05-14T10:29:31.489Z,1.00
2023-05-14T10:31:58.459Z,1.00
2023-05-14T10:34:40.823Z,1.00
2023-05-14T10:37:23.063Z,1.00
2023-05-14T10:39:54.055Z,1.00
2023-05-14T10:42:24.437Z,1.00
2023-05-14T10:44:58.586Z,1.00
2023-05-14T10:47:29.437Z,1.00
2023-05-14T10:49:58.809Z,1.00
2023-05-14T10:52:26.581Z,1.00
2023-05-14T10:54:54.511Z,1.00
2023-05-14T11:01:10.392Z,1.00
2023-05-14T11:07:29.753Z,99.90
2023-05-14T11:10:06.778Z,99.90
2023-05-14T11:12:39.149Z,99.90
2023-05-14T11:15:11.222Z,99.90
2023-05-14T11:17:40.463Z,99.90
2023-05-14T11:20:08.960Z,99.90
2023-05-14T11:22:37.146Z,99.90
2023-05-14T11:25:04.928Z,99.90
2023-05-14T11:27:38.784Z,99.90
2023-05-14T11:30:12.304Z,99.90
2023-05-14T11:32:39.801Z,99.90
2023-05-14T11:35:07.327Z,99.90
2023-05-14T11:37:34.294Z,99.90
2023-05-14T11:40:02.188Z,99.90
2023-05-14T11:42:29.097Z,99.90
2023-05-14T11:44:56.056Z,99.90
2023-05-14T11:47:23.219Z,99.90
2023-05-14T11:49:50.435Z,99.90
2023-05-14T11:52:19.664Z,99.90
2023-05-14T11:54:47.093Z,99.90
2023-05-14T11:57:19.780Z,99.90
2023-05-14T11:59:49.001Z,99.90
2023-05-14T12:02:18.133Z,99.90
2023-05-14T12:04:49.656Z,99.90
2023-05-14T12:07:17.019Z,99.90
2023-05-14T12:09:50.158Z,99.90
2023-05-14T12:12:23.213Z,99.90
2023-05-14T12:14:50.693Z,99.90
2023-05-14T12:17:18.501Z,99.90
2023-05-14T12:19:48.644Z,99.90
2023-05-14T12:22:18.116Z,99.90
2023-05-14T12:24:56.842Z,99.90
2023-05-14T12:27:28.655Z,99.90
2023-05-14T12:30:20.515Z,99.90
2023-05-14T12:32:53.794Z,99.90
2023-05-14T12:35:22.889Z,99.90
2023-05-14T12:37:50.219Z,99.90
2023-05-14T12:40:17.207Z,99.90
2023-05-14T12:42:44.172Z,99.90
2023-05-14T12:45:11.625Z,99.90
2023-05-14T12:47:38.576Z,99.90
2023-05-14T12:50:06.261Z,99.90
2023-05-14T12:52:38.639Z,99.90
2023-05-14T12:55:07.833Z,99.90
2023-05-14T12:57:35.760Z,99.90
2023-05-14T13:00:06.960Z,99.90
2023-05-14T13:02:42.703Z,99.90
2023-05-14T13:05:11.290Z,99.90
2023-05-14T13:07:38.728Z,99.90
2023-05-14T13:10:06.251Z,99.90
2023-05-14T13:12:33.391Z,99.90
2023-05-14T13:15:00.706Z,99.90
2023-05-14T13:17:27.827Z,99.90
2023-05-14T13:19:54.776Z,99.90
2023-05-14T13:22:21.747Z,99.90
2023-05-14T13:24:48.861Z,99.90
2023-05-14T13:27:15.764Z,99.90
2023-05-14T13:29:42.805Z,99.90
2023-05-14T13:32:09.763Z,99.90
2023-05-14T13:34:36.697Z,99.90
2023-05-14T13:37:04.168Z,99.90
2023-05-14T13:39:31.123Z,99.90
2023-05-14T13:41:58.065Z,99.90
2023-05-14T13:44:25.168Z,99.90
2023-05-14T13:46:52.459Z,99.90
2023-05-14T13:49:19.480Z,99.90
2023-05-14T13:51:46.448Z,99.90
2023-05-14T13:54:13.391Z,99.90
2023-05-14T13:56:40.464Z,99.90
2023-05-14T13:59:07.528Z,99.90
2023-05-14T14:01:34.487Z,99.90
2023-05-14T14:04:01.425Z,99.90
2023-05-14T14:06:30.966Z,99.90
2023-05-14T14:08:57.879Z,99.90
2023-05-14T14:11:24.881Z,99.90
2023-05-14T14:13:51.785Z,99.90
2023-05-14T14:16:18.937Z,99.90
2023-05-14T14:18:45.971Z,99.90
2023-05-14T14:21:12.995Z,99.90
2023-05-14T14:23:39.874Z,99.90
2023-05-14T14:26:06.856Z,99.90
2023-05-14T14:28:33.753Z,99.90
2023-05-14T14:31:01.108Z,99.90
2023-05-14T14:33:28.077Z,99.90
2023-05-14T14:35:54.955Z,99.90
2023-05-14T14:38:21.903Z,99.90
2023-05-14T14:40:48.858Z,99.90
2023-05-14T14:43:16.764Z,99.90
2023-05-14T14:45:46.814Z,99.90
2023-05-14T14:48:31.525Z,99.90
2023-05-14T14:50:58.879Z,99.90
2023-05-14T14:53:25.989Z,99.90
2023-05-14T14:55:53.539Z,99.90
2023-05-14T14:58:20.915Z,99.90
2023-05-14T15:00:49.484Z,99.90
2023-05-14T15:03:16.514Z,99.90
2023-05-14T15:05:43.569Z,99.90
2023-05-14T15:08:10.706Z,99.90
2023-05-14T15:10:38.444Z,99.90
2023-05-14T15:13:06.478Z,99.90
2023-05-14T15:15:34.817Z,99.90
2023-05-14T15:18:02.920Z,99.90
2023-05-14T15:20:30.065Z,99.90
2023-05-14T15:22:57.111Z,99.90
2023-05-14T15:25:25.250Z,99.90
2023-05-14T15:27:52.415Z,99.90
2023-05-14T15:30:19.406Z,99.90
2023-05-14T15:32:46.861Z,99.90
2023-05-14T15:35:14.273Z,99.90
2023-05-14T15:37:44.732Z,99.90
2023-05-14T15:40:12.288Z,99.90
2023-05-14T15:42:44.029Z,99.90
2023-05-14T15:45:12.900Z,99.90
2023-05-14T15:47:40.878Z,99.90
2023-05-14T15:50:08.693Z,99.90
2023-05-14T15:52:36.609Z,99.90
2023-05-14T15:55:06.329Z,99.90
2023-05-14T15:57:33.688Z,99.90
2023-05-14T16:00:00.653Z,99.90
2023-05-14T16:02:30.641Z,99.90
2023-05-14T16:04:57.726Z,99.90
2023-05-14T16:07:24.627Z,99.90
2023-05-14T16:09:51.904Z,99.90
2023-05-14T16:12:18.847Z,99.90
2023-05-14T16:14:45.920Z,99.90
2023-05-14T16:17:12.873Z,99.90
2023-05-14T16:19:40.042Z,99.90
2023-05-14T16:22:07.587Z,99.90
2023-05-14T16:24:34.551Z,99.90
2023-05-14T16:27:01.527Z,99.90
2023-05-14T16:29:28.485Z,99.90
2023-05-14T16:31:55.538Z,99.90
2023-05-14T16:34:22.674Z,99.90
2023-05-14T16:36:49.737Z,99.90
2023-05-14T16:39:16.728Z,99.90
2023-05-14T16:41:43.711Z,99.90
2023-05-14T16:44:10.760Z,99.90
2023-05-14T16:46:37.901Z,99.90
2023-05-14T16:49:04.941Z,99.90
2023-05-14T16:51:31.957Z,99.90
2023-05-14T16:53:58.914Z,99.90
2023-05-14T16:56:26.659Z,99.90
2023-05-14T16:58:53.609Z,99.90
2023-05-14T17:01:20.729Z,99.90
2023-05-14T17:03:47.607Z,99.90
2023-05-14T17:06:14.571Z,99.90
2023-05-14T17:08:41.484Z,99.90
2023-05-14T17:11:08.491Z,99.90
2023-05-14T17:13:35.725Z,99.90
2023-05-14T17:16:02.778Z,99.90
2023-05-14T17:18:30.019Z,99.90
2023-05-14T17:20:56.989Z,99.90
2023-05-14T17:23:23.965Z,99.90
2023-05-14T17:25:51.176Z,99.90
2023-05-14T17:28:18.166Z,99.90
2023-05-14T17:30:45.082Z,99.90
2023-05-14T17:33:12.094Z,99.90
2023-05-14T17:35:39.083Z,99.90
2023-05-14T17:38:06.462Z,99.90
2023-05-14T17:40:34.285Z,99.90
2023-05-14T17:43:01.426Z,99.90
2023-05-14T17:45:32.111Z,99.90
2023-05-14T17:48:03.646Z,99.90
2023-05-14T17:50:30.583Z,99.90
2023-05-14T17:52:57.545Z,99.90
2023-05-14T17:55:24.753Z,99.90
2023-05-14T17:57:51.950Z,99.90
2023-05-14T18:00:19.102Z,99.90
2023-05-14T18:02:46.110Z,99.90
2023-05-14T18:05:13.270Z,99.90
2023-05-14T18:07:41.019Z,99.90
2023-05-14T18:10:08.631Z,99.90
2023-05-14T18:12:35.608Z,99.90
2023-05-14T18:15:02.561Z,99.90
2023-05-14T18:17:29.605Z,99.90
2023-05-14T18:19:56.824Z,99.90
2023-05-14T18:22:23.805Z,99.90
2023-05-14T18:24:50.758Z,99.90
2023-05-14T18:27:17.648Z,99.90
2023-05-14T18:29:44.651Z,99.90
2023-05-14T18:32:11.717Z,99.90
2023-05-14T18:34:38.731Z,99.90
2023-05-14T18:37:07.214Z,99.90
2023-05-14T18:39:34.286Z,99.90
2023-05-14T18:42:01.444Z,99.90
2023-05-14T18:44:28.440Z,99.90
2023-05-14T18:46:55.837Z,99.90
2023-05-14T18:49:22.980Z,99.90
2023-05-14T18:51:49.905Z,99.90
2023-05-14T18:54:16.827Z,99.90
2023-05-14T18:56:46.757Z,99.90
2023-05-14T18:59:14.618Z,99.90
2023-05-14T19:01:41.716Z,99.90
2023-05-14T19:04:09.058Z,99.90
2023-05-14T19:06:36.296Z,99.90
2023-05-14T19:09:04.448Z,99.90
2023-05-14T19:11:31.409Z,99.90
2023-05-14T19:13:58.374Z,99.90
2023-05-14T19:16:25.368Z,99.90
2023-05-14T19:18:52.479Z,99.90
2023-05-14T19:21:19.528Z,99.90
2023-05-14T19:23:46.522Z,99.90
2023-05-14T19:26:13.591Z,1.00
2023-05-14T19:28:40.722Z,1.00
2023-05-14T19:31:07.665Z,1.00
2023-05-14T19:33:34.710Z,1.00
2023-05-14T19:36:01.714Z,64.40
2023-05-14T19:38:29.727Z,99.90
2023-05-14T19:40:57.186Z,99.90
2023-05-14T19:43:25.675Z,99.90
2023-05-14T19:45:52.786Z,99.90
2023-05-14T19:48:19.748Z,99.90
2023-05-14T19:50:47.410Z,99.90
2023-05-14T19:53:14.458Z,99.90
2023-05-14T19:55:41.886Z,99.90
2023-05-14T19:58:09.002Z,1.00
2023-05-14T20:00:37.231Z,1.00
2023-05-14T20:03:05.969Z,1.00
2023-05-14T20:05:34.527Z,2.70
2023-05-14T20:08:01.755Z,78.10
2023-05-14T20:10:30.657Z,99.90
2023-05-14T20:12:57.613Z,99.90
2023-05-14T20:15:24.649Z,99.90
2023-05-14T20:17:52.044Z,1.00
2023-05-14T20:20:19.008Z,1.00
2023-05-14T20:22:45.972Z,1.00
2023-05-14T20:25:12.890Z,1.00
2023-05-14T20:27:40.094Z,49.70
2023-05-14T20:30:07.926Z,42.50
2023-05-14T20:32:34.945Z,98.60
2023-05-14T20:35:04.512Z,99.90
2023-05-14T20:37:35.114Z,99.90
2023-05-14T20:40:03.378Z,99.90
2023-05-14T20:46:17.888Z,99.90
2023-05-14T20:52:32.899Z,99.90
2023-05-14T20:55:01.715Z,99.90
2023-05-14T20:57:29.357Z,99.90
2023-05-14T20:59:56.279Z,1.00
2023-05-14T21:02:23.380Z,99.90
2023-05-14T21:04:50.692Z,99.90
2023-05-14T21:07:18.114Z,1.00
2023-05-14T21:09:50.816Z,99.90
2023-05-14T21:12:19.000Z,1.50
2023-05-14T21:14:45.952Z,99.90
2023-05-14T21:17:12.955Z,1.00
2023-05-14T21:19:40.092Z,99.90
2023-05-14T21:22:07.464Z,1.00
2023-05-14T21:24:34.388Z,99.90
2023-05-14T21:27:01.378Z,18.80
2023-05-14T21:29:28.296Z,1.00
2023-05-14T21:31:55.408Z,1.00
2023-05-14T21:34:22.383Z,1.00
2023-05-14T21:36:49.391Z,1.00
2023-05-14T21:39:16.289Z,18.50
2023-05-14T21:41:43.220Z,99.90
2023-05-14T21:44:10.108Z,99.90
2023-05-14T21:46:37.057Z,99.90
2023-05-14T21:49:04.036Z,1.00
2023-05-14T21:51:32.258Z,1.00
2023-05-14T21:53:59.339Z,22.40
2023-05-14T21:56:26.458Z,41.00
2023-05-14T21:58:55.652Z,93.00
2023-05-14T22:01:22.896Z,99.90
2023-05-14T22:03:49.906Z,99.90
2023-05-14T22:06:16.892Z,99.90
2023-05-14T22:08:43.804Z,99.90
2023-05-14T22:11:10.702Z,99.90
2023-05-14T22:13:40.972Z,99.90
2023-05-14T22:16:13.372Z,99.90
2023-05-14T22:18:41.692Z,99.90
2023-05-14T22:21:08.792Z,99.90
2023-05-14T22:23:36.242Z,99.90
2023-05-14T22:26:03.349Z,99.90
2023-05-14T22:28:30.340Z,99.90
2023-05-14T22:30:59.820Z,99.90
2023-05-14T22:33:26.880Z,99.90
2023-05-14T22:35:53.844Z,99.90
2023-05-14T22:38:21.296Z,99.90
2023-05-14T22:40:48.204Z,99.90
2023-05-14T22:43:15.082Z,99.90
2023-05-14T22:45:43.056Z,99.90
2023-05-14T22:48:09.960Z,99.90
2023-05-14T22:50:37.288Z,99.90
2023-05-14T22:53:04.198Z,1.00
2023-05-14T22:55:31.192Z,1.00
2023-05-14T22:57:58.144Z,1.00
2023-05-14T23:00:25.367Z,1.00
2023-05-14T23:02:52.386Z,1.00
2023-05-14T23:05:19.346Z,1.00
2023-05-14T23:07:46.240Z,1.00
2023-05-14T23:10:13.185Z,1.00
2023-05-14T23:12:40.222Z,1.00
2023-05-14T23:15:07.485Z,1.00
2023-05-14T23:17:34.510Z,1.00
2023-05-14T23:20:01.503Z,1.00
2023-05-14T23:22:28.812Z,1.00
2023-05-14T23:24:55.680Z,1.00
2023-05-14T23:27:22.636Z,1.00
2023-05-14T23:29:49.502Z,1.00
2023-05-14T23:32:16.544Z,1.00
2023-05-14T23:34:43.545Z,1.00
2023-05-14T23:37:10.560Z,1.00
2023-05-14T23:39:37.498Z,1.00
2023-05-14T23:42:04.410Z,1.00
2023-05-14T23:44:31.421Z,1.00
2023-05-14T23:46:58.699Z,1.00
2023-05-14T23:49:25.780Z,1.00
2023-05-14T23:51:52.696Z,1.00
2023-05-14T23:54:19.642Z,1.00
2023-05-14T23:56:46.789Z,1.00
2023-05-14T23:59:13.962Z,1.00
